createdAt,value
2023-04-14T00:02:07.054Z,23.48
2023-04-14T00:04:34.327Z,24.27
2023-04-14T00:07:01.672Z,10.43
2023-04-14T00:09:28.825Z,17.95
2023-04-14T00:11:57.274Z,18.42
2023-04-14T00:14:24.516Z,16.35
2023-04-14T00:16:51.744Z,25.45
2023-04-14T00:19:18.808Z,12.10
2023-04-14T00:21:45.786Z,13.38
2023-04-14T00:24:12.809Z,16.80
2023-04-14T00:26:39.829Z,12.73
2023-04-14T00:29:06.900Z,11.73
2023-04-14T00:31:34.506Z,15.73
2023-04-14T00:34:01.515Z,15.65
2023-04-14T00:36:29.057Z,17.85
2023-04-14T00:39:00.406Z,15.00
2023-04-14T00:41:33.149Z,13.25
2023-04-14T00:46:29.908Z,17.83
2023-04-14T00:48:57.421Z,16.58
2023-04-14T00:51:25.125Z,18.17
2023-04-14T00:53:54.208Z,11.25
2023-04-14T00:56:22.251Z,12.05
2023-04-14T00:58:51.838Z,10.95
2023-04-14T01:01:20.262Z,13.13
2023-04-14T01:03:48.374Z,13.93
2023-04-14T01:06:15.771Z,15.13
2023-04-14T01:08:42.844Z,13.50
2023-04-14T01:11:21.562Z,13.65
2023-04-14T01:14:12.537Z,16.20
2023-04-14T01:16:45.398Z,13.45
2023-04-14T01:19:20.625Z,12.45
2023-04-14T01:21:54.329Z,18.83
2023-04-14T01:25:11.712Z,17.70
2023-04-14T01:28:32.558Z,10.32
2023-04-14T01:31:26.360Z,16.58
2023-04-14T01:34:21.120Z,19.90
2023-04-14T01:36:57.017Z,13.10
2023-04-14T01:39:30.489Z,10.30
2023-04-14T01:42:02.120Z,11.40
2023-04-14T01:44:31.217Z,21.83
2023-04-14T01:47:04.449Z,22.17
2023-04-14T01:49:33.895Z,12.55
2023-04-14T01:52:04.031Z,19.73
2023-04-14T01:54:33.325Z,10.27
2023-04-14T01:57:02.753Z,14.10
2023-04-14T01:59:33.915Z,19.20
2023-04-14T02:02:07.819Z,15.38
2023-04-14T02:04:36.401Z,12.80
2023-04-14T02:07:05.792Z,15.38
2023-04-14T02:09:34.266Z,13.57
2023-04-14T02:12:04.692Z,16.75
2023-04-14T02:14:32.964Z,18.15
2023-04-14T02:17:02.488Z,19.48
2023-04-14T02:19:30.699Z,16.80
2023-04-14T02:21:59.248Z,17.92
2023-04-14T02:24:26.666Z,16.23
2023-04-14T02:27:07.354Z,20.50
2023-04-14T02:29:36.231Z,14.10
2023-04-14T02:32:05.600Z,11.13
2023-04-14T02:34:38.302Z,14.85
2023-04-14T02:37:23.204Z,10.90
2023-04-14T02:39:55.563Z,18.27
2023-04-14T02:42:26.956Z,17.02
2023-04-14T02:45:04.381Z,21.27
2023-04-14T02:47:35.757Z,19.05
2023-04-14T02:50:06.325Z,17.90
2023-04-14T02:52:37.546Z,18.98
2023-04-14T02:55:06.172Z,14.27
2023-04-14T02:57:33.912Z,12.80
2023-04-14T03:00:03.612Z,18.75
2023-04-14T03:02:36.091Z,7.05
2023-04-14T03:05:08.869Z,33.72
2023-04-14T03:07:44.839Z,46.50
2023-04-14T03:10:15.791Z,54.00
2023-04-14T03:12:45.427Z,35.22
2023-04-14T03:15:12.590Z,24.02
2023-04-14T03:17:40.333Z,26.13
2023-04-14T03:20:09.780Z,13.23
2023-04-14T03:22:40.744Z,11.10
2023-04-14T03:25:12.347Z,12.02
2023-04-14T03:27:42.082Z,13.45
2023-04-14T03:30:12.258Z,12.52
2023-04-14T03:32:42.344Z,15.93
2023-04-14T03:35:15.373Z,19.23
2023-04-14T03:37:43.852Z,14.20
2023-04-14T03:40:13.595Z,13.38
2023-04-14T03:42:44.710Z,12.38
2023-04-14T03:45:13.333Z,12.52
2023-04-14T03:47:42.015Z,20.38
2023-04-14T03:50:11.190Z,16.15
2023-04-14T03:52:42.584Z,16.02
2023-04-14T03:55:12.471Z,15.95
2023-04-14T03:57:43.910Z,14.98
2023-04-14T04:00:15.195Z,9.68
2023-04-14T04:02:44.769Z,10.93
2023-04-14T04:05:13.092Z,9.13
2023-04-14T04:07:41.858Z,15.95
2023-04-14T04:10:10.407Z,8.52
2023-04-14T04:12:38.759Z,19.65
2023-04-14T04:15:08.870Z,11.57
2023-04-14T04:17:38.076Z,14.63
2023-04-14T04:20:09.987Z,16.95
2023-04-14T04:22:40.097Z,26.70
2023-04-14T04:25:11.277Z,18.05
2023-04-14T04:27:42.390Z,22.65
2023-04-14T04:30:16.921Z,17.75
2023-04-14T04:32:44.227Z,15.88
2023-04-14T04:35:12.570Z,16.83
2023-04-14T04:37:42.134Z,26.73
2023-04-14T04:40:10.060Z,21.52
2023-04-14T04:42:42.089Z,19.33
2023-04-14T04:45:11.189Z,24.75
2023-04-14T04:47:39.414Z,17.10
2023-04-14T04:50:07.320Z,25.63
2023-04-14T04:52:34.382Z,24.60
2023-04-14T04:55:01.418Z,16.88
2023-04-14T04:57:28.428Z,16.35
2023-04-14T04:59:55.513Z,14.63
2023-04-14T05:02:22.973Z,18.20
2023-04-14T05:04:50.656Z,24.15
2023-04-14T05:07:17.961Z,15.70
2023-04-14T05:09:45.066Z,17.30
2023-04-14T05:12:12.064Z,13.70
2023-04-14T05:14:39.098Z,12.00
2023-04-14T05:17:06.096Z,28.25
2023-04-14T05:19:33.105Z,24.70
2023-04-14T05:22:01.536Z,14.43
2023-04-14T05:24:28.556Z,13.52
2023-04-14T05:27:12.585Z,17.23
2023-04-14T05:29:41.403Z,20.77
2023-04-14T05:32:08.758Z,17.90
2023-04-14T05:34:35.844Z,16.92
2023-04-14T05:37:03.084Z,13.38
2023-04-14T05:39:30.171Z,14.70
2023-04-14T05:41:57.172Z,15.75
2023-04-14T05:44:24.312Z,17.73
2023-04-14T05:46:51.708Z,20.48
2023-04-14T05:49:18.754Z,20.58
2023-04-14T05:51:45.934Z,24.02
2023-04-14T05:54:12.964Z,17.38
2023-04-14T05:56:40.167Z,26.13
2023-04-14T05:59:07.257Z,38.63
2023-04-14T06:01:34.321Z,18.73
2023-04-14T06:04:03.693Z,24.48
2023-04-14T06:06:32.516Z,60.78
2023-04-14T06:08:59.838Z,21.33
2023-04-14T06:11:26.967Z,21.67
2023-04-14T06:13:53.965Z,21.17
2023-04-14T06:16:21.045Z,23.15
2023-04-14T06:18:48.121Z,25.80
2023-04-14T06:21:15.370Z,33.20
2023-04-14T06:23:42.435Z,22.17
2023-04-14T06:26:09.503Z,34.80
2023-04-14T06:28:36.510Z,20.23
2023-04-14T06:31:03.901Z,26.08
2023-04-14T06:33:31.650Z,13.50
2023-04-14T06:35:58.801Z,19.40
2023-04-14T06:38:26.977Z,20.17
2023-04-14T06:40:54.050Z,18.00
2023-04-14T06:43:21.173Z,14.48
2023-04-14T06:45:50.753Z,18.48
2023-04-14T06:48:17.973Z,17.83
2023-04-14T06:50:54.173Z,25.58
2023-04-14T06:53:21.902Z,21.33
2023-04-14T06:55:51.154Z,15.40
2023-04-14T06:58:18.532Z,15.98
2023-04-14T07:00:45.652Z,17.58
2023-04-14T07:03:12.820Z,14.35
2023-04-14T07:05:39.980Z,18.63
2023-04-14T07:08:07.133Z,11.65
2023-04-14T07:10:34.187Z,22.33
2023-04-14T07:13:01.178Z,24.98
2023-04-14T07:15:29.985Z,11.02
2023-04-14T07:17:59.806Z,14.27
2023-04-14T07:20:29.034Z,15.18
2023-04-14T07:22:56.140Z,16.13
2023-04-14T07:25:23.190Z,20.63
2023-04-14T07:28:02.136Z,15.40
2023-04-14T07:30:30.591Z,19.05
2023-04-14T07:32:58.282Z,22.23
2023-04-14T07:35:26.225Z,17.50
2023-04-14T07:37:53.239Z,17.58
2023-04-14T07:40:20.315Z,17.67
2023-04-14T07:42:47.719Z,13.50
2023-04-14T07:45:14.746Z,18.45
2023-04-14T07:47:41.852Z,12.27
2023-04-14T07:50:09.150Z,20.42
2023-04-14T07:52:36.950Z,12.25
2023-04-14T07:55:04.505Z,15.85
2023-04-14T07:57:33.777Z,13.90
2023-04-14T08:00:00.906Z,17.45
2023-04-14T08:02:28.124Z,23.02
2023-04-14T08:04:55.290Z,19.70
2023-04-14T08:07:22.303Z,22.98
2023-04-14T08:09:49.642Z,22.02
2023-04-14T08:12:16.646Z,20.60
2023-04-14T08:14:43.755Z,12.52
2023-04-14T08:17:10.968Z,10.95
2023-04-14T08:19:38.013Z,15.45
2023-04-14T08:22:05.372Z,18.50
2023-04-14T08:24:32.876Z,15.05
2023-04-14T08:27:02.160Z,18.83
2023-04-14T08:29:29.226Z,11.88
2023-04-14T08:31:56.241Z,15.93
2023-04-14T08:34:28.598Z,12.13
2023-04-14T08:39:23.699Z,11.93
2023-04-14T08:41:53.416Z,19.20
2023-04-14T08:44:21.884Z,13.02
2023-04-14T08:46:52.551Z,13.95
2023-04-14T08:49:27.203Z,10.63
2023-04-14T08:51:55.282Z,14.38
2023-04-14T08:54:22.624Z,16.80
2023-04-14T08:56:49.934Z,6.18
2023-04-14T08:59:17.265Z,7.00
2023-04-14T09:01:46.058Z,13.52
2023-04-14T09:04:14.550Z,13.98
2023-04-14T09:06:41.845Z,11.45
2023-04-14T09:09:10.590Z,11.38
2023-04-14T09:11:38.009Z,13.35
2023-04-14T09:14:06.045Z,7.82
2023-04-14T09:16:33.363Z,9.10
2023-04-14T09:19:06.974Z,12.43
2023-04-14T09:21:51.554Z,17.35
2023-04-14T09:24:31.260Z,14.73
2023-04-14T09:27:05.106Z,8.60
2023-04-14T09:32:00.237Z,7.75
2023-04-14T09:34:28.018Z,15.23
2023-04-14T09:37:02.436Z,5.00
2023-04-14T09:39:29.725Z,6.43
2023-04-14T09:41:56.935Z,7.00
2023-04-14T09:44:24.078Z,19.80
2023-04-14T09:47:02.274Z,11.00
2023-04-14T09:49:29.923Z,9.57
2023-04-14T09:52:09.340Z,4.97
2023-04-14T09:54:36.416Z,12.35
2023-04-14T09:57:04.099Z,11.65
2023-04-14T09:59:38.660Z,9.15
2023-04-14T10:02:07.877Z,10.57
2023-04-14T10:04:36.644Z,13.73
2023-04-14T10:07:07.838Z,16.45
2023-04-14T10:09:37.769Z,7.72
2023-04-14T10:12:09.978Z,14.13
2023-04-14T10:14:38.816Z,9.18
2023-04-14T10:17:07.164Z,10.65
2023-04-14T10:19:36.149Z,9.35
2023-04-14T10:22:05.881Z,7.75
2023-04-14T10:24:33.703Z,7.13
2023-04-14T10:27:02.940Z,9.35
2023-04-14T10:29:30.869Z,8.02
2023-04-14T10:32:05.740Z,12.18
2023-04-14T10:34:33.665Z,6.68
2023-04-14T10:37:14.342Z,7.30
2023-04-14T10:39:42.849Z,13.82
2023-04-14T10:42:10.019Z,11.43
2023-04-14T10:44:37.134Z,14.20
2023-04-14T10:47:07.429Z,11.57
2023-04-14T10:49:37.156Z,12.18
2023-04-14T10:52:29.739Z,9.23
2023-04-14T10:55:08.157Z,8.07
2023-04-14T10:57:43.446Z,8.98
2023-04-14T11:00:19.687Z,14.55
2023-04-14T11:03:08.195Z,13.18
2023-04-14T11:05:35.701Z,13.63
2023-04-14T11:08:13.557Z,7.60
2023-04-14T11:10:41.817Z,9.25
2023-04-14T11:13:12.668Z,6.72
2023-04-14T11:15:46.847Z,8.23
2023-04-14T11:18:16.650Z,9.82
2023-04-14T11:20:44.218Z,6.78
2023-04-14T11:23:16.301Z,5.85
2023-04-14T11:25:43.865Z,7.00
2023-04-14T11:28:11.286Z,16.98
2023-04-14T11:30:40.592Z,9.60
2023-04-14T11:33:07.681Z,11.45
2023-04-14T11:35:34.808Z,14.18
2023-04-14T11:38:01.970Z,7.93
2023-04-14T11:40:29.143Z,10.00
2023-04-14T11:42:57.845Z,10.13
2023-04-14T11:45:31.773Z,11.55
2023-04-14T11:48:00.118Z,8.50
2023-04-14T11:50:30.149Z,7.32
2023-04-14T11:52:59.455Z,6.50
2023-04-14T11:55:27.256Z,9.73
2023-04-14T11:57:58.063Z,13.35
2023-04-14T12:00:25.414Z,5.15
2023-04-14T12:02:52.746Z,8.27
2023-04-14T12:05:31.553Z,8.45
2023-04-14T12:08:12.201Z,6.25
2023-04-14T12:10:41.972Z,10.45
2023-04-14T12:13:11.167Z,12.45
2023-04-14T12:15:42.221Z,10.57
2023-04-14T12:18:13.707Z,10.50
2023-04-14T12:20:54.332Z,5.97
2023-04-14T12:23:21.900Z,8.48
2023-04-14T12:25:49.472Z,9.90
2023-04-14T12:28:24.908Z,4.78
2023-04-14T12:30:54.186Z,11.18
2023-04-14T12:33:27.800Z,7.70
2023-04-14T12:36:10.115Z,5.05
2023-04-14T12:38:37.601Z,12.57
2023-04-14T12:41:05.364Z,17.27
2023-04-14T12:43:35.358Z,7.70
2023-04-14T12:46:07.849Z,12.57
2023-04-14T12:48:44.482Z,6.97
2023-04-14T12:51:13.326Z,5.85
2023-04-14T12:53:41.299Z,6.97
2023-04-14T12:56:09.330Z,6.72
2023-04-14T12:58:37.911Z,7.05
2023-04-14T13:01:11.248Z,8.10
2023-04-14T13:03:46.895Z,8.82
2023-04-14T13:06:16.484Z,7.60
2023-04-14T13:08:46.056Z,6.82
2023-04-14T13:11:16.940Z,9.98
2023-04-14T13:13:45.477Z,8.50
2023-04-14T13:16:16.807Z,8.38
2023-04-14T13:21:13.280Z,5.65
2023-04-14T13:23:40.950Z,4.43
2023-04-14T13:26:08.378Z,5.95
2023-04-14T13:28:36.440Z,11.02
2023-04-14T13:31:03.886Z,6.75
2023-04-14T13:33:33.358Z,5.28
2023-04-14T13:36:01.956Z,8.60
2023-04-14T13:38:29.264Z,7.43
2023-04-14T13:40:56.383Z,5.63
2023-04-14T13:43:23.487Z,7.93
2023-04-14T13:45:50.704Z,6.20
2023-04-14T13:48:17.923Z,6.43
2023-04-14T13:50:44.927Z,4.47
2023-04-14T13:53:12.248Z,4.03
2023-04-14T13:55:39.449Z,7.13
2023-04-14T13:58:06.606Z,6.95
2023-04-14T14:00:33.908Z,6.13
2023-04-14T14:03:01.202Z,11.43
2023-04-14T14:05:28.760Z,11.95
2023-04-14T14:07:56.480Z,8.55
2023-04-14T14:10:23.850Z,7.97
2023-04-14T14:12:51.637Z,5.88
2023-04-14T14:15:18.802Z,4.00
2023-04-14T14:17:46.091Z,9.88
2023-04-14T14:20:13.165Z,11.77
2023-04-14T14:22:40.367Z,4.05
2023-04-14T14:25:19.396Z,7.00
2023-04-14T14:27:48.342Z,3.33
2023-04-14T14:30:15.786Z,11.95
2023-04-14T14:32:43.004Z,6.53
2023-04-14T14:35:10.375Z,8.57
2023-04-14T14:37:37.519Z,9.77
2023-04-14T14:40:05.523Z,6.40
2023-04-14T14:42:32.621Z,6.85
2023-04-14T14:44:59.774Z,9.02
2023-04-14T14:47:28.402Z,3.30
2023-04-14T14:50:01.673Z,4.05
2023-04-14T14:52:36.598Z,6.57
2023-04-14T14:55:04.742Z,12.13
2023-04-14T14:57:31.773Z,6.95
2023-04-14T14:59:58.841Z,8.52
2023-04-14T15:02:26.458Z,6.90
2023-04-14T15:04:54.269Z,5.30
2023-04-14T15:07:21.344Z,5.35
2023-04-14T15:09:49.868Z,4.20
2023-04-14T15:12:17.466Z,7.38
2023-04-14T15:14:44.743Z,6.95
2023-04-14T15:17:11.865Z,4.68
2023-04-14T15:19:39.142Z,7.90
2023-04-14T15:22:06.178Z,6.38
2023-04-14T15:24:33.312Z,5.05
2023-04-14T15:27:02.460Z,7.35
2023-04-14T15:29:30.442Z,4.75
2023-04-14T15:31:57.531Z,13.98
2023-04-14T15:34:25.243Z,5.93
2023-04-14T15:36:52.324Z,11.23
2023-04-14T15:39:19.400Z,4.88
2023-04-14T15:41:47.537Z,7.38
2023-04-14T15:44:14.622Z,4.85
2023-04-14T15:46:41.713Z,2.05
2023-04-14T15:49:08.769Z,8.25
2023-04-14T15:51:35.805Z,8.40
2023-04-14T15:54:03.428Z,4.47
2023-04-14T15:56:31.088Z,5.53
2023-04-14T15:58:58.147Z,4.85
2023-04-14T16:01:25.265Z,3.85
2023-04-14T16:04:22.133Z,6.75
2023-04-14T16:06:40.090Z,5.93
2023-04-14T16:09:07.216Z,8.00
2023-04-14T16:11:34.464Z,8.10
2023-04-14T16:14:01.770Z,2.40
2023-04-14T16:16:29.049Z,4.05
2023-04-14T16:18:56.112Z,5.10
2023-04-14T16:21:23.168Z,4.28
2023-04-14T16:23:50.706Z,5.70
2023-04-14T16:26:17.750Z,4.80
2023-04-14T16:28:45.308Z,5.53
2023-04-14T16:31:12.846Z,6.75
2023-04-14T16:33:39.840Z,4.43
2023-04-14T16:36:07.635Z,7.47
2023-04-14T16:38:34.835Z,10.95
2023-04-14T16:41:02.297Z,7.20
2023-04-14T16:43:29.767Z,9.18
2023-04-14T16:46:04.150Z,4.07
2023-04-14T16:48:35.778Z,6.97
2023-04-14T16:51:04.516Z,4.00
2023-04-14T16:53:31.672Z,5.60
2023-04-14T16:56:04.002Z,6.50
2023-04-14T16:58:31.234Z,8.13
2023-04-14T17:00:58.707Z,3.45
2023-04-14T17:03:25.927Z,7.30
2023-04-14T17:05:53.443Z,5.35
2023-04-14T17:08:20.684Z,6.40
2023-04-14T17:10:47.874Z,3.50
2023-04-14T17:13:15.561Z,6.35
2023-04-14T17:15:43.883Z,4.88
2023-04-14T17:18:11.813Z,5.80
2023-04-14T17:20:40.853Z,4.07
2023-04-14T17:23:09.288Z,3.40
2023-04-14T17:25:37.273Z,2.53
2023-04-14T17:28:06.007Z,12.75
2023-04-14T17:30:34.708Z,7.95
2023-04-14T17:33:03.677Z,4.97
2023-04-14T17:35:33.407Z,7.15
2023-04-14T17:38:00.835Z,6.22
2023-04-14T17:40:28.320Z,3.47
2023-04-14T17:42:55.632Z,4.88
2023-04-14T17:45:23.206Z,5.20
2023-04-14T17:47:52.320Z,5.80
2023-04-14T17:50:21.000Z,8.82
2023-04-14T17:52:49.901Z,7.65
2023-04-14T17:55:17.605Z,9.52
2023-04-14T17:57:47.948Z,7.32
2023-04-14T18:00:15.304Z,5.45
2023-04-14T18:02:45.120Z,7.03
2023-04-14T18:05:13.116Z,5.88
2023-04-14T18:07:41.910Z,3.22
2023-04-14T18:10:09.306Z,4.32
2023-04-14T18:12:36.696Z,10.35
2023-04-14T18:15:05.260Z,6.43
2023-04-14T18:17:32.372Z,7.18
2023-04-14T18:19:59.536Z,4.15
2023-04-14T18:22:27.325Z,5.05
2023-04-14T18:24:54.448Z,7.65
2023-04-14T18:29:53.016Z,8.18
2023-04-14T18:32:20.650Z,9.60
2023-04-14T18:34:48.317Z,8.65
2023-04-14T18:37:15.801Z,4.47
2023-04-14T18:39:43.483Z,12.55
2023-04-14T18:42:11.327Z,9.20
2023-04-14T18:44:38.460Z,5.50
2023-04-14T18:47:05.493Z,12.48
2023-04-14T18:49:32.560Z,7.28
2023-04-14T18:51:59.561Z,6.30
2023-04-14T18:54:26.715Z,6.18
2023-04-14T18:56:53.757Z,6.65
2023-04-14T18:59:21.973Z,4.60
2023-04-14T19:01:49.047Z,7.00
2023-04-14T19:04:16.151Z,6.80
2023-04-14T19:06:43.861Z,11.18
2023-04-14T19:09:11.092Z,14.82
2023-04-14T19:11:38.114Z,6.05
2023-04-14T19:14:05.430Z,14.02
2023-04-14T19:16:32.879Z,5.15
2023-04-14T19:19:00.790Z,22.42
2023-04-14T19:21:28.278Z,7.57
2023-04-14T19:23:57.023Z,8.27
2023-04-14T19:26:24.249Z,10.93
2023-04-14T19:28:53.315Z,7.30
2023-04-14T19:31:21.352Z,5.95
2023-04-14T19:33:49.153Z,9.77
2023-04-14T19:36:17.286Z,10.25
2023-04-14T19:38:44.480Z,9.95
2023-04-14T19:41:12.004Z,14.02
2023-04-14T19:43:39.262Z,6.57
2023-04-14T19:46:07.824Z,5.80
2023-04-14T19:48:35.072Z,13.63
2023-04-14T19:51:02.357Z,8.63
2023-04-14T19:53:30.053Z,8.70
2023-04-14T19:55:58.424Z,7.80
2023-04-14T19:58:28.417Z,10.60
2023-04-14T20:00:58.858Z,13.60
2023-04-14T20:03:26.852Z,8.63
2023-04-14T20:05:56.639Z,10.00
2023-04-14T20:08:25.202Z,9.05
2023-04-14T20:10:54.219Z,12.77
2023-04-14T20:13:23.755Z,7.95
2023-04-14T20:15:53.783Z,11.63
2023-04-14T20:18:22.412Z,12.60
2023-04-14T20:20:50.076Z,7.20
2023-04-14T20:23:17.272Z,7.88
2023-04-14T20:25:45.456Z,10.75
2023-04-14T20:28:13.823Z,11.98
2023-04-14T20:30:43.223Z,9.77
2023-04-14T20:33:11.167Z,10.15
2023-04-14T20:35:40.254Z,11.32
2023-04-14T20:38:07.528Z,10.13
2023-04-14T20:40:35.346Z,13.45
2023-04-14T20:43:02.529Z,12.48
2023-04-14T20:45:29.889Z,14.93
2023-04-14T20:47:57.140Z,18.92
2023-04-14T20:50:24.436Z,19.15
2023-04-14T20:52:51.551Z,17.92
2023-04-14T20:55:19.436Z,11.10
2023-04-14T20:57:47.940Z,15.88
2023-04-14T21:00:16.621Z,10.43
2023-04-14T21:02:44.294Z,11.50
2023-04-14T21:05:12.590Z,21.35
2023-04-14T21:07:39.967Z,16.33
2023-04-14T21:10:10.252Z,14.82
2023-04-14T21:13:49.586Z,10.55
2023-04-14T21:15:47.955Z,11.80
2023-04-14T21:18:12.952Z,14.52
2023-04-14T21:20:40.023Z,11.13
2023-04-14T21:23:07.217Z,12.20
2023-04-14T21:25:35.412Z,15.02
2023-04-14T21:28:03.627Z,16.48
2023-04-14T21:30:31.581Z,16.20
2023-04-14T21:32:59.085Z,14.52
2023-04-14T21:35:26.202Z,13.60
2023-04-14T21:37:53.231Z,12.13
2023-04-14T21:40:20.382Z,12.52
2023-04-14T21:42:47.453Z,10.80
2023-04-14T21:45:14.565Z,12.23
2023-04-14T21:47:41.827Z,15.75
2023-04-14T21:50:09.683Z,13.82
2023-04-14T21:52:36.985Z,11.65
2023-04-14T21:55:04.312Z,12.52
2023-04-14T21:57:48.300Z,21.50
2023-04-14T22:00:17.761Z,12.07
2023-04-14T22:02:45.607Z,11.52
2023-04-14T22:05:16.117Z,14.30
2023-04-14T22:07:43.130Z,12.10
2023-04-14T22:10:11.904Z,13.02
2023-04-14T22:12:42.544Z,13.20
2023-04-14T22:15:10.538Z,11.63
2023-04-14T22:17:38.834Z,10.57
2023-04-14T22:20:06.753Z,12.35
2023-04-14T22:22:34.707Z,15.45
2023-04-14T22:25:03.596Z,14.82
2023-04-14T22:27:31.312Z,9.60
2023-04-14T22:29:58.339Z,11.05
2023-04-14T22:32:25.693Z,11.82
2023-04-14T22:34:52.910Z,9.07
2023-04-14T22:37:19.905Z,12.90
2023-04-14T22:39:46.982Z,12.35
2023-04-14T22:42:13.993Z,17.35
2023-04-14T22:44:41.185Z,9.95
2023-04-14T22:47:08.491Z,11.20
2023-04-14T22:49:35.595Z,13.10
2023-04-14T22:52:02.773Z,8.63
2023-04-14T22:54:29.862Z,13.48
2023-04-14T22:56:57.057Z,9.68
2023-04-14T22:59:25.711Z,10.13
2023-04-14T23:01:53.904Z,7.38
2023-04-14T23:04:21.158Z,16.08
2023-04-14T23:06:48.666Z,10.15
2023-04-14T23:09:16.074Z,11.52
2023-04-14T23:11:43.200Z,13.02
2023-04-14T23:14:10.500Z,21.60
2023-04-14T23:16:37.568Z,14.95
2023-04-14T23:19:04.830Z,25.95
2023-04-14T23:21:32.195Z,10.40
2023-04-14T23:23:59.196Z,8.60
2023-04-14T23:26:26.352Z,14.88
2023-04-14T23:28:53.546Z,9.25
2023-04-14T23:31:20.939Z,9.50
2023-04-14T23:33:50.803Z,12.57
2023-04-14T23:36:18.690Z,11.98
2023-04-14T23:38:45.962Z,12.90
2023-04-14T23:41:13.314Z,10.50
2023-04-14T23:43:40.420Z,11.07
2023-04-14T23:46:07.446Z,7.90
2023-04-14T23:48:34.464Z,8.32
2023-04-14T23:51:15.020Z,14.13
2023-04-14T23:53:49.032Z,15.65
2023-04-14T23:56:16.359Z,9.60
2023-04-14T23:58:43.772Z,15.10
